Terminal Aerodrome Forecast
Issued by NWS Charleston, WV

Current Version | Previous Version | Graphics & Text | Print | Product List | Glossary On
Versions: 1 2 3 4 5 6 7 8 9 10 11 12 13 14 15 16 17 18 19 20 21 22 23 24
000
FTUS41 KRLX 081500 AAA
TAFEKN
TAF AMD
KEKN 081514Z 0815/0912 23008KT P6SM BKN090
     FM082100 22014G22KT 6SM TSRA BKN035CB
     FM082300 24012G19KT 5SM TSRA BR BKN035CB
     FM090300 26008KT P6SM VCTS BKN030CB
     FM090600 26006KT P6SM BKN025
     FM090700 27005KT 5SM BR BKN025
     FM091100 00000KT 1SM BR SCT020=

USA.gov is the U.S. government's official web portal to all federal, state and local government web resources and services.